Time;durP1;ratioP1;P1;durP2;ratioP2;P2;SDS_P1;SDS_P2;PMS_P1;PMS_P2;Temp;Humidity;BMP_temperature;BMP_pressure;BME280_temperature;BME280_humidity;BME280_pressure;Samples;Min_cycle;Max_cycle;Signal;HPM_P1;HPM_P2
2021/03/21 00:01:42;;;;;;;3.85;2.00;;;;;;;4.11;85.68;101335.05;123368;1102;64908;-78
2021/03/21 00:04:14;;;;;;;4.63;2.60;;;;;;;4.12;85.87;101328.83;123387;1105;65046;-78
2021/03/21 00:06:45;;;;;;;6.30;2.90;;;;;;;4.11;86.47;101335.88;123436;1105;65403;-78
2021/03/21 00:09:12;;;;;;;4.53;1.70;;;;;;;4.11;85.34;101327.17;123333;1102;64902;-78
2021/03/21 00:11:39;;;;;;;3.50;2.37;;;;;;;4.11;85.95;101321.92;123434;1102;64984;-78
2021/03/21 00:14:06;;;;;;;2.75;2.00;;;;;;;4.08;86.69;101323.83;124680;1105;64885;-79
2021/03/21 00:16:34;;;;;;;3.93;2.53;;;;;;;4.09;87.06;101322.03;123364;1102;65014;-78
2021/03/21 00:19:03;;;;;;;3.97;2.27;;;;;;;4.06;86.80;101315.23;123562;1103;64934;-78
2021/03/21 00:21:29;;;;;;;2.70;1.73;;;;;;;4.05;87.20;101308.30;123740;1105;64943;-79
2021/03/21 00:23:56;;;;;;;3.47;2.30;;;;;;;4.05;86.15;101300.42;123540;1102;64925;-78
2021/03/21 00:26:22;;;;;;;2.60;1.70;;;;;;;4.04;86.52;101306.64;123363;1102;64808;-78
2021/03/21 00:28:49;;;;;;;2.50;1.50;;;;;;;4.04;85.75;101293.52;123429;1102;65253;-78
2021/03/21 00:31:15;;;;;;;4.20;1.70;;;;;;;4.05;84.77;101297.80;123520;1102;64835;-76
2021/03/21 00:33:42;;;;;;;3.50;1.98;;;;;;;4.05;85.20;101295.17;123407;1105;65252;-77
2021/03/21 00:36:11;;;;;;;3.20;1.60;;;;;;;4.07;85.16;101282.77;123489;1105;64931;-78
2021/03/21 00:38:41;;;;;;;2.93;1.90;;;;;;;4.08;84.72;101281.82;123556;1102;64883;-78
2021/03/21 00:41:11;;;;;;;2.63;1.20;;;;;;;4.08;84.93;101273.95;123451;1102;64925;-78
2021/03/21 00:43:38;;;;;;;2.33;1.80;;;;;;;4.05;85.38;101270.71;123553;1102;65024;-76
2021/03/21 00:46:06;;;;;;;3.40;1.93;;;;;;;4.06;85.60;101270.60;123471;1105;66043;-77
2021/03/21 00:48:37;;;;;;;3.20;1.93;;;;;;;4.07;86.05;101258.30;123413;1105;65680;-77
2021/03/21 00:51:04;;;;;;;2.07;1.37;;;;;;;4.06;86.40;101254.02;123372;1106;64959;-79
2021/03/21 00:53:31;;;;;;;3.43;1.40;;;;;;;4.05;86.94;101266.29;123405;1105;64994;-77
2021/03/21 00:55:57;;;;;;;3.03;2.23;;;;;;;4.04;86.03;101248.05;123400;1105;65604;-78
2021/03/21 00:58:24;;;;;;;3.50;2.00;;;;;;;4.01;86.24;101246.48;123373;1102;64947;-78
2021/03/21 01:00:56;;;;;;;4.10;2.10;;;;;;;4.02;86.68;101235.04;123387;1105;65461;-78
2021/03/21 01:03:23;;;;;;;3.47;1.50;;;;;;;4.03;86.38;101239.31;127155;1102;63651;-78
2021/03/21 01:05:54;;;;;;;3.57;2.67;;;;;;;4.04;87.78;101233.13;127060;1102;63068;-78
2021/03/21 01:08:31;;;;;;;4.23;2.87;;;;;;;4.03;87.37;101244.57;123677;1105;65360;-78
2021/03/21 01:11:19;;;;;;;4.00;2.57;;;;;;;3.99;88.30;101234.43;123602;1102;64876;-75
2021/03/21 01:13:46;;;;;;;3.73;1.73;;;;;;;3.96;89.47;101229.43;123438;1106;65023;-75
2021/03/21 01:16:16;;;;;;;3.37;2.03;;;;;;;3.93;89.86;101229.66;123423;1105;66034;-76
2021/03/21 01:18:43;;;;;;;3.60;1.87;;;;;;;3.92;90.46;101226.20;125524;1105;65045;-76
2021/03/21 01:21:13;;;;;;;3.47;2.10;;;;;;;3.90;90.35;101222.03;123419;1105;65033;-76
2021/03/21 01:23:41;;;;;;;2.57;1.27;;;;;;;3.86;91.05;101208.30;123451;1105;65714;-75
2021/03/21 01:26:11;;;;;;;2.63;1.80;;;;;;;3.85;91.23;101209.27;123488;1103;64905;-78
2021/03/21 01:28:37;;;;;;;4.20;2.25;;;;;;;3.83;90.75;101203.30;123443;1106;64866;-75
2021/03/21 01:31:07;;;;;;;3.40;1.80;;;;;;;3.80;92.01;101208.77;123362;1106;65022;-75
2021/03/21 01:33:34;;;;;;;3.60;1.60;;;;;;;3.80;92.10;101195.65;123432;1102;64987;-75
2021/03/21 01:36:04;;;;;;;2.10;1.40;;;;;;;3.79;91.27;101196.61;123411;1105;64943;-78
2021/03/21 01:38:30;;;;;;;4.27;2.53;;;;;;;3.79;92.54;101181.70;123347;1105;64943;-76
2021/03/21 01:41:00;;;;;;;3.37;2.37;;;;;;;3.80;92.93;101167.61;123387;1105;64912;-75
2021/03/21 01:43:30;;;;;;;3.97;2.30;;;;;;;3.78;92.03;101182.66;123510;1104;65691;-77
2021/03/21 01:45:57;;;;;;;3.23;1.37;;;;;;;3.78;92.94;101168.69;123402;1102;64877;-78
2021/03/21 01:48:42;;;;;;;4.13;2.30;;;;;;;3.78;92.17;101168.69;123577;1102;64908;-76
2021/03/21 01:51:21;;;;;;;;;;;;;;;3.78;92.56;101159.05;123458;1103;64879;-77
2021/03/21 01:53:55;;;;;;;3.40;1.90;;;;;;;3.79;93.75;101144.96;123439;1102;64850;-76
2021/03/21 01:56:25;;;;;;;3.77;2.57;;;;;;;3.79;93.23;101149.38;123396;1102;64991;-75
2021/03/21 01:59:00;;;;;;;4.30;2.70;;;;;;;3.78;92.52;101137.20;123462;1105;64914;-78
2021/03/21 02:01:28;;;;;;;2.93;2.47;;;;;;;3.77;93.84;101122.42;123368;1105;64905;-76
2021/03/21 02:03:57;;;;;;;3.23;2.23;;;;;;;3.77;93.94;101128.50;123390;1102;64981;-76
2021/03/21 02:06:35;;;;;;;4.27;2.70;;;;;;;3.78;92.93;101116.20;123377;1103;65116;-76
2021/03/21 02:09:10;;;;;;;2.23;1.60;;;;;;;3.77;93.69;101120.63;123245;1105;64937;-77
2021/03/21 02:12:00;;;;;;;4.67;2.70;;;;;;;3.78;93.94;101114.44;123401;1102;64943;-77
2021/03/21 02:14:57;;;;;;;4.73;2.53;;;;;;;3.80;93.94;101114.30;123547;1102;64908;-77
2021/03/21 02:18:02;;;;;;;2.45;1.60;;;;;;;3.80;93.22;101111.67;123421;1102;64879;-75
2021/03/21 02:20:34;;;;;;;3.47;1.93;;;;;;;3.81;93.76;101106.31;123426;1102;64895;-77
2021/03/21 02:23:13;;;;;;;3.93;2.17;;;;;;;3.80;93.07;101093.30;123390;1102;65113;-76
2021/03/21 02:26:01;;;;;;;5.87;2.93;;;;;;;3.83;94.07;101086.03;123524;1102;65231;-76
2021/03/21 02:28:58;;;;;;;3.17;1.93;;;;;;;3.85;94.50;101085.92;123406;1102;64899;-76
2021/03/21 02:31:34;;;;;;;2.27;1.70;;;;;;;3.85;94.56;101086.74;123353;1102;64908;-76
2021/03/21 02:34:09;;;;;;;4.90;3.07;;;;;;;3.88;92.87;101090.91;123448;1103;64911;-77
2021/03/21 02:36:44;;;;;;;2.75;1.70;;;;;;;3.90;92.91;101067.17;123380;1103;65039;-78
2021/03/21 02:39:37;;;;;;;4.57;2.30;;;;;;;3.90;93.53;101075.05;123429;1105;64944;-77
2021/03/21 02:42:13;;;;;;;4.33;2.87;;;;;;;3.92;93.61;101076.59;123594;1104;66118;-75
2021/03/21 02:44:49;;;;;;;3.40;2.37;;;;;;;3.93;93.25;101080.90;123397;1103;64934;-75
2021/03/21 02:47:23;;;;;;;3.90;2.45;;;;;;;3.93;94.32;101099.27;123502;1103;64841;-75
2021/03/21 02:49:52;;;;;;;3.98;2.35;;;;;;;3.95;93.15;101094.70;123502;1102;64934;-74
2021/03/21 02:52:38;;;;;;;3.77;2.10;;;;;;;3.96;93.98;101093.77;123471;1105;65536;-76
2021/03/21 02:55:20;;;;;;;3.90;2.20;;;;;;;3.98;93.53;101086.60;123291;1105;64984;-75
2021/03/21 02:58:15;;;;;;;3.67;2.37;;;;;;;4.01;93.78;101086.34;123435;1104;64910;-76
2021/03/21 03:01:10;;;;;;;4.77;3.07;;;;;;;4.02;93.59;101077.53;123404;1104;64899;-77
2021/03/21 03:03:44;;;;;;;2.80;1.77;;;;;;;4.01;93.87;101060.09;123443;1105;64966;-74
2021/03/21 03:06:15;;;;;;;3.90;2.40;;;;;;;4.00;93.81;101058.44;123455;1105;64937;-76
2021/03/21 03:08:48;;;;;;;4.95;3.15;;;;;;;3.98;94.03;101052.48;123321;1102;64888;-78
2021/03/21 03:11:18;;;;;;;3.17;2.10;;;;;;;3.98;94.98;101051.66;123529;1105;64872;-77
2021/03/21 03:13:56;;;;;;;4.03;2.63;;;;;;;3.98;94.25;101038.53;123479;1105;65579;-80
2021/03/21 03:16:55;;;;;;;4.03;2.50;;;;;;;3.97;94.62;101042.92;123312;1105;65287;-79
2021/03/21 03:19:51;;;;;;;4.33;2.90;;;;;;;3.96;95.51;101030.77;123550;1105;64987;-79
2021/03/21 03:22:23;;;;;;;5.07;1.97;;;;;;;3.96;95.74;101038.64;123473;1102;64912;-77
2021/03/21 03:25:14;;;;;;;4.67;2.87;;;;;;;3.95;96.17;101036.95;123939;1103;64876;-77
2021/03/21 03:28:09;;;;;;;5.25;3.45;;;;;;;3.97;95.88;101048.17;123405;1106;64912;-79
2021/03/21 03:30:38;;;;;;;5.17;3.80;;;;;;;3.97;96.05;101021.92;123406;1103;64972;-79
2021/03/21 03:33:07;;;;;;;4.50;2.53;;;;;;;3.98;96.27;101020.98;123404;1103;64885;-79
2021/03/21 03:35:36;;;;;;;5.20;3.23;;;;;;;3.98;96.45;101015.73;123411;1102;65020;-78
2021/03/21 03:38:08;;;;;;;4.27;2.30;;;;;;;3.99;95.92;101014.76;123459;1105;64853;-78
2021/03/21 03:40:37;;;;;;;3.53;1.90;;;;;;;4.01;96.70;101010.22;123342;1105;65347;-79
2021/03/21 03:43:22;;;;;;;5.53;3.30;;;;;;;4.02;95.57;101004.02;123654;1105;64847;-79
2021/03/21 03:46:19;;;;;;;4.60;3.10;;;;;;;4.04;95.68;101011.78;123356;1102;65292;-78
2021/03/21 03:48:57;;;;;;;4.60;2.70;;;;;;;4.04;95.74;101011.78;123540;1102;65700;-77
2021/03/21 03:51:33;;;;;;;5.03;3.00;;;;;;;4.06;96.49;101010.70;123359;1102;64975;-77
2021/03/21 03:54:34;;;;;;;7.27;4.20;;;;;;;4.06;96.63;101000.20;123357;1102;64882;-77
2021/03/21 03:57:23;;;;;;;5.30;3.07;;;;;;;4.08;95.91;100987.78;123205;1103;65690;-76
2021/03/21 04:00:29;;;;;;;6.63;4.07;;;;;;;4.11;96.00;100993.73;123383;1105;64978;-80
2021/03/21 04:03:15;;;;;;;4.20;2.03;;;;;;;4.14;95.63;100985.59;123759;1105;64908;-79
2021/03/21 04:05:51;;;;;;;5.60;3.60;;;;;;;4.15;96.43;100979.41;124059;1103;64892;-78
2021/03/21 04:08:42;;;;;;;4.95;3.10;;;;;;;4.17;95.46;100996.69;124668;1102;65317;-76
2021/03/21 04:11:24;;;;;;;6.60;3.73;;;;;;;4.20;96.56;100964.09;123294;1105;64981;-77
2021/03/21 04:14:00;;;;;;;4.90;3.10;;;;;;;4.20;95.71;100970.16;123355;1105;64857;-77
2021/03/21 04:16:32;;;;;;;4.50;2.83;;;;;;;4.21;95.84;100971.02;123455;1102;64940;-77
2021/03/21 04:19:06;;;;;;;3.67;2.90;;;;;;;4.21;95.75;100963.97;123465;1106;64912;-77
2021/03/21 04:21:45;;;;;;;4.17;2.67;;;;;;;4.24;96.86;100961.08;123457;1103;64939;-77
2021/03/21 04:24:55;;;;;;;3.27;2.03;;;;;;;4.25;96.54;100960.13;123686;1105;65235;-75
2021/03/21 04:27:29;;;;;;;3.73;2.47;;;;;;;4.28;96.54;100991.38;123266;1105;64979;-75
2021/03/21 04:30:14;;;;;;;4.30;2.53;;;;;;;4.29;96.26;100963.31;123295;1104;65936;-77
2021/03/21 04:32:45;;;;;;;3.17;1.97;;;;;;;4.32;95.87;100951.75;123313;1102;64963;-77
2021/03/21 04:35:26;;;;;;;3.72;2.40;;;;;;;4.33;95.99;100963.91;123512;1103;64936;-77
2021/03/21 04:38:02;;;;;;;3.55;2.50;;;;;;;4.34;95.99;100948.03;123435;1105;65138;-75
2021/03/21 04:40:30;;;;;;;4.63;2.53;;;;;;;4.35;96.75;100960.19;123762;1102;66131;-77
2021/03/21 04:43:01;;;;;;;4.10;2.47;;;;;;;4.36;95.62;100961.86;123433;1105;65326;-76
2021/03/21 04:45:35;;;;;;;3.97;2.17;;;;;;;4.38;96.38;100957.31;123389;1105;65228;-77
2021/03/21 04:48:05;;;;;;;3.77;2.37;;;;;;;4.38;96.55;100946.81;123379;1103;65678;-74
2021/03/21 04:50:33;;;;;;;4.07;2.67;;;;;;;4.41;95.23;100956.22;123431;1106;64886;-78
2021/03/21 04:53:17;;;;;;;3.03;1.77;;;;;;;4.42;95.31;100939.48;123370;1103;64883;-77
2021/03/21 04:55:58;;;;;;;4.23;2.43;;;;;;;4.43;95.30;100928.86;123348;1102;64899;-79
2021/03/21 04:58:37;;;;;;;3.20;2.00;;;;;;;4.41;96.07;100925.53;123373;1102;64991;-75
2021/03/21 05:01:09;;;;;;;5.57;2.57;;;;;;;4.44;95.21;100908.67;123456;1102;64888;-75
2021/03/21 05:03:41;;;;;;;3.57;2.83;;;;;;;4.44;95.68;100893.77;124393;1105;64886;-77
2021/03/21 05:06:15;;;;;;;4.93;2.53;;;;;;;4.47;95.73;100914.50;123529;1104;64901;-76
2021/03/21 05:08:58;;;;;;;4.70;2.67;;;;;;;4.49;95.34;100909.95;123427;1103;64902;-75
2021/03/21 05:11:35;;;;;;;2.65;1.85;;;;;;;4.51;94.85;100909.01;123394;1105;65510;-76
2021/03/21 05:14:06;;;;;;;4.23;2.47;;;;;;;4.53;94.64;100899.17;123351;1103;64939;-77
2021/03/21 05:16:41;;;;;;;4.50;2.27;;;;;;;4.53;94.04;100901.80;123307;1106;64934;-78
2021/03/21 05:19:26;;;;;;;5.53;2.30;;;;;;;4.52;93.23;100903.60;123600;1102;64885;-79
2021/03/21 05:22:02;;;;;;;3.67;2.33;;;;;;;4.53;93.79;100901.80;123299;1102;64968;-77
2021/03/21 05:24:43;;;;;;;3.40;1.87;;;;;;;4.55;93.02;100905.13;123408;1105;64921;-76
2021/03/21 05:27:17;;;;;;;3.33;1.80;;;;;;;4.55;92.27;100920.89;123418;1105;64905;-77
2021/03/21 05:29:58;;;;;;;3.60;2.15;;;;;;;4.55;92.99;100905.98;123553;1104;65055;-78
2021/03/21 05:32:25;;;;;;;2.90;1.77;;;;;;;4.58;92.42;100891.75;123425;1103;64975;-77
2021/03/21 05:34:56;;;;;;;4.40;2.00;;;;;;;4.56;91.94;100898.92;123427;1102;65679;-76
2021/03/21 05:37:39;;;;;;;1.90;1.23;;;;;;;4.56;90.94;100898.92;123593;1105;64925;-78
2021/03/21 05:40:51;;;;;;;3.23;1.70;;;;;;;4.58;90.88;100900.45;123422;1102;66009;-78
2021/03/21 05:43:54;;;;;;;2.60;1.53;;;;;;;4.58;90.34;100900.45;123479;1105;65129;-77
2021/03/21 05:46:44;;;;;;;3.60;1.80;;;;;;;4.58;90.12;100905.70;123335;1105;65375;-76
2021/03/21 05:49:43;;;;;;;2.33;1.30;;;;;;;4.60;89.92;100905.59;123506;1105;64993;-76
2021/03/21 05:52:34;;;;;;;2.50;1.40;;;;;;;4.62;89.31;100901.03;123461;1102;64835;-76
2021/03/21 05:55:11;;;;;;;2.73;1.20;;;;;;;4.60;89.04;100910.84;123304;1103;64912;-74
2021/03/21 05:58:15;;;;;;;5.37;1.33;;;;;;;4.59;89.53;100912.65;123283;1102;64972;-75
2021/03/21 06:01:10;;;;;;;3.33;1.43;;;;;;;4.55;89.38;100916.49;123602;1103;64895;-76
2021/03/21 06:04:10;;;;;;;4.33;1.97;;;;;;;4.54;90.77;100909.56;123610;1102;66109;-74
2021/03/21 06:07:06;;;;;;;2.10;1.13;;;;;;;4.51;90.74;100909.83;123435;1101;64875;-77
2021/03/21 06:09:53;;;;;;;3.17;2.10;;;;;;;4.47;91.02;100922.39;123411;1102;64908;-76
2021/03/21 06:12:36;;;;;;;4.80;1.50;;;;;;;4.45;90.78;100921.68;123420;1105;65767;-77
2021/03/21 06:15:17;;;;;;;6.97;3.00;;;;;;;4.44;91.69;100925.28;123497;1102;64940;-76
2021/03/21 06:18:19;;;;;;;5.43;3.20;;;;;;;4.41;92.87;100924.70;123441;1102;64921;-75
2021/03/21 06:21:10;;;;;;;5.40;2.50;;;;;;;4.36;92.92;100927.72;123437;1105;64987;-76
2021/03/21 06:23:52;;;;;;;5.83;2.80;;;;;;;4.34;92.92;100934.89;123410;1105;65711;-76
2021/03/21 06:26:42;;;;;;;5.37;2.63;;;;;;;4.32;93.07;100931.56;123419;1105;65010;-75
2021/03/21 06:29:50;;;;;;;3.53;1.80;;;;;;;4.31;93.68;100927.25;123398;1105;64914;-76
2021/03/21 06:32:44;;;;;;;5.70;2.80;;;;;;;4.30;93.22;100925.61;123439;1104;64950;-76
2021/03/21 06:35:36;;;;;;;7.95;3.45;;;;;;;4.30;93.71;100930.86;123482;1105;64961;-74
2021/03/21 06:38:05;;;;;;;5.63;1.93;;;;;;;4.32;93.08;100938.62;123360;1105;64829;-77
2021/03/21 06:41:01;;;;;;;5.60;2.47;;;;;;;4.33;93.61;100927.14;123319;1102;65017;-79
2021/03/21 06:43:52;;;;;;;4.03;2.67;;;;;;;4.32;94.35;100926.31;123400;1105;64928;-75
2021/03/21 06:46:35;;;;;;;4.27;2.70;;;;;;;4.31;92.43;100956.14;123357;1105;64889;-77
2021/03/21 06:49:29;;;;;;;9.00;1.83;;;;;;;4.32;92.34;100944.69;123607;1102;64856;-77
2021/03/21 06:52:04;;;;;;;3.30;1.97;;;;;;;4.36;91.29;100943.48;123389;1102;64889;-77
2021/03/21 06:54:53;;;;;;;5.87;1.53;;;;;;;4.38;89.57;100948.58;123420;1105;65131;-75
2021/03/21 06:57:48;;;;;;;9.27;2.30;;;;;;;4.39;89.04;100951.09;123444;1103;64908;-76
2021/03/21 07:00:26;;;;;;;7.05;1.50;;;;;;;4.41;87.10;100972.80;123414;1103;64920;-75
2021/03/21 07:03:08;;;;;;;5.67;1.93;;;;;;;4.42;86.33;100948.22;123367;1102;64869;-75
2021/03/21 07:05:40;;;;;;;10.83;2.63;;;;;;;4.40;85.69;100976.41;123218;1104;64979;-77
2021/03/21 07:08:41;;;;;;;24.20;2.20;;;;;;;4.40;86.50;100963.27;123319;1103;65045;-75
2021/03/21 07:11:36;;;;;;;10.47;2.13;;;;;;;4.37;83.74;100963.52;123394;1105;65877;-75
2021/03/21 07:14:27;;;;;;;12.57;2.10;;;;;;;4.38;84.48;100987.98;123363;1102;64892;-76
2021/03/21 07:16:53;;;;;;;5.87;1.93;;;;;;;4.40;83.18;101007.08;123347;1103;64917;-75
2021/03/21 07:19:41;;;;;;;10.83;1.97;;;;;;;4.48;82.43;100981.86;123322;1102;65425;-76
2021/03/21 07:22:26;;;;;;;13.60;1.70;;;;;;;4.56;82.00;100996.96;123357;1102;65237;-76
2021/03/21 07:25:51;;;;;;;6.93;1.53;;;;;;;4.58;79.34;100994.22;123404;1105;65024;-77
2021/03/21 07:28:51;;;;;;;16.13;1.90;;;;;;;4.58;77.88;100981.08;123229;1105;64952;-76
2021/03/21 07:31:43;;;;;;;9.67;1.67;;;;;;;4.59;77.71;100990.61;123486;1102;64905;-77
2021/03/21 07:34:44;;;;;;;13.73;1.73;;;;;;;4.61;77.35;100983.44;123433;1105;64835;-73
2021/03/21 07:37:31;;;;;;;4.47;1.23;;;;;;;4.59;76.38;100993.23;123372;1102;65335;-75
2021/03/21 07:40:24;;;;;;;7.17;1.40;;;;;;;4.59;76.34;101001.12;123356;1102;65221;-76
2021/03/21 07:43:11;;;;;;;7.10;1.73;;;;;;;4.62;76.63;101019.27;123536;1103;64877;-80
2021/03/21 07:46:04;;;;;;;15.70;2.70;;;;;;;4.60;75.88;101014.14;123446;1103;64879;-79
2021/03/21 07:49:06;;;;;;;12.67;2.97;;;;;;;4.60;75.41;101005.44;123476;1103;64898;-79
2021/03/21 07:51:52;;;;;;;10.63;1.90;;;;;;;4.63;76.95;101002.53;123415;1105;65042;-79
2021/03/21 07:54:38;;;;;;;14.93;2.77;;;;;;;4.66;77.29;101011.00;123470;1105;64844;-80
2021/03/21 07:57:21;;;;;;;6.77;1.50;;;;;;;4.69;76.23;101023.05;123519;1102;64870;-79
2021/03/21 07:59:49;;;;;;;7.67;1.90;;;;;;;4.68;76.93;100995.11;123454;1102;64946;-78
2021/03/21 08:02:22;;;;;;;11.05;2.35;;;;;;;4.67;75.79;101004.77;123561;1105;64994;-77
2021/03/21 08:04:49;;;;;;;10.57;2.00;;;;;;;4.72;76.32;101008.80;123441;1105;64888;-78
2021/03/21 08:07:23;;;;;;;11.97;3.83;;;;;;;4.69;77.06;101007.27;123357;1105;66035;-79
2021/03/21 08:09:50;;;;;;;11.80;1.80;;;;;;;4.63;76.55;100992.02;123440;1102;64908;-79
2021/03/21 08:12:20;;;;;;;15.73;2.90;;;;;;;4.57;76.07;100988.14;123436;1105;65538;-78
2021/03/21 08:14:50;;;;;;;9.37;1.97;;;;;;;4.59;77.29;100999.34;123386;1102;65792;-80
2021/03/21 08:17:21;;;;;;;9.90;2.30;;;;;;;4.57;76.47;101003.05;123439;1105;64918;-78
2021/03/21 08:19:51;;;;;;;9.90;2.53;;;;;;;4.52;75.85;101021.82;123464;1102;64918;-80
2021/03/21 08:22:23;;;;;;;13.27;2.57;;;;;;;4.57;74.70;100993.39;123476;1102;64898;-79
2021/03/21 08:24:52;;;;;;;9.27;1.80;;;;;;;4.66;75.43;100981.27;123552;1102;64905;-79
2021/03/21 08:27:25;;;;;;;16.73;2.63;;;;;;;4.76;72.90;100990.05;123641;1103;64943;-78
2021/03/21 08:30:13;;;;;;;14.50;2.23;;;;;;;4.83;72.78;100962.27;123706;1102;65068;-80
2021/03/21 08:33:00;;;;;;;12.53;3.10;;;;;;;4.92;71.48;100967.70;123723;1103;64838;-79
2021/03/21 08:35:33;;;;;;;21.87;4.13;;;;;;;4.94;71.11;100957.89;123737;1102;64969;-78
2021/03/21 08:38:19;;;;;;;16.67;3.13;;;;;;;4.98;72.67;100985.59;123439;1105;64915;-80
2021/03/21 08:40:46;;;;;;;15.80;2.40;;;;;;;4.94;71.99;100961.34;123399;1103;64921;-82
2021/03/21 08:43:27;;;;;;;18.60;3.43;;;;;;;4.93;71.98;100977.24;123817;1104;64992;-79
2021/03/21 08:45:56;;;;;;;15.20;2.90;;;;;;;4.92;73.16;100979.05;123571;1105;64975;-81
2021/03/21 08:48:34;;;;;;;17.03;3.40;;;;;;;4.92;73.57;100975.59;123697;1102;64927;-81
2021/03/21 08:51:03;;;;;;;9.50;2.53;;;;;;;4.92;72.75;100973.79;123625;1102;64921;-79
2021/03/21 08:53:42;;;;;;;17.80;3.30;;;;;;;4.94;73.36;100968.41;123585;1102;64991;-81
2021/03/21 08:56:16;;;;;;;13.10;2.75;;;;;;;4.96;72.16;100987.52;123452;1105;64897;-81
2021/03/21 08:58:44;;;;;;;16.43;2.57;;;;;;;4.98;71.73;100996.10;123494;1105;65090;-81
2021/03/21 09:01:16;;;;;;;24.07;3.90;;;;;;;5.00;71.39;100973.14;123606;1105;66148;-81
2021/03/21 09:03:43;;;;;;;22.17;2.77;;;;;;;5.02;70.76;100968.59;123469;1102;65506;-79
2021/03/21 09:06:26;;;;;;;28.80;2.50;;;;;;;5.08;70.56;100975.95;123793;1105;64969;-79
2021/03/21 09:08:52;;;;;;;18.20;2.95;;;;;;;5.14;70.31;100983.28;123491;1102;64914;-82
2021/03/21 09:11:33;;;;;;;17.33;4.07;;;;;;;5.20;69.50;101000.34;123457;1105;64974;-79
2021/03/21 09:14:04;;;;;;;14.80;3.03;;;;;;;5.30;70.46;100985.44;123550;1105;65013;-81
2021/03/21 09:16:30;;;;;;;12.80;2.70;;;;;;;5.31;69.67;100982.68;123507;1105;64898;-81
2021/03/21 09:19:18;;;;;;;18.37;3.97;;;;;;;5.38;69.17;101009.28;123546;1105;64835;-80
2021/03/21 09:21:47;;;;;;;14.10;2.10;;;;;;;5.43;68.65;100993.09;123696;1105;64769;-81
2021/03/21 09:24:23;;;;;;;11.63;2.90;;;;;;;5.54;68.32;101019.28;123447;1105;64889;-80
2021/03/21 09:26:51;;;;;;;13.47;2.40;;;;;;;5.62;68.92;101006.29;123593;1102;65007;-79
2021/03/21 09:29:34;;;;;;;12.00;3.30;;;;;;;5.64;68.10;100985.11;123643;1103;65280;-80
2021/03/21 09:32:16;;;;;;;14.67;2.57;;;;;;;5.70;67.98;101021.42;123451;1105;65699;-80
2021/03/21 09:35:04;;;;;;;13.67;2.20;;;;;;;5.77;68.59;101003.28;123543;1102;64972;-80
2021/03/21 09:37:36;;;;;;;23.30;3.67;;;;;;;5.73;67.04;101016.70;123546;1102;64981;-79
2021/03/21 09:40:32;;;;;;;20.73;3.53;;;;;;;5.72;68.36;101012.41;123596;1102;64879;-81
2021/03/21 09:42:59;;;;;;;26.40;4.00;;;;;;;5.64;67.85;101035.94;123529;1105;64968;-80
2021/03/21 09:45:25;;;;;;;19.50;3.27;;;;;;;5.64;67.88;101030.67;123575;1105;64879;-81
2021/03/21 09:47:59;;;;;;;16.90;4.17;;;;;;;5.66;67.32;101031.38;123476;1102;64920;-80
2021/03/21 09:50:42;;;;;;;18.50;3.50;;;;;;;5.81;67.94;101020.47;123557;1106;64928;-80
2021/03/21 09:53:36;;;;;;;28.20;4.45;;;;;;;5.89;67.08;101015.36;123522;1105;64923;-80
2021/03/21 09:56:42;;;;;;;15.50;3.17;;;;;;;5.96;68.11;101016.50;123572;1102;64840;-80
2021/03/21 09:59:24;;;;;;;27.82;4.33;;;;;;;6.07;67.75;101032.16;123484;1106;64965;-80
2021/03/21 10:02:08;;;;;;;10.50;2.07;;;;;;;6.11;66.56;101025.66;123769;1105;65137;-79
2021/03/21 10:04:59;;;;;;;20.70;3.93;;;;;;;6.16;66.60;101024.41;123560;1102;64934;-81
2021/03/21 10:07:43;;;;;;;15.37;2.93;;;;;;;6.16;65.91;101038.41;123569;1102;66344;-81
2021/03/21 10:10:26;;;;;;;26.20;3.97;;;;;;;6.18;66.57;101038.27;123548;1102;64912;-79
2021/03/21 10:12:56;;;;;;;12.07;3.03;;;;;;;6.02;65.56;101047.55;123749;1102;66170;-82
2021/03/21 10:15:27;;;;;;;25.00;3.83;;;;;;;5.93;66.54;101050.98;123642;1102;65904;-81
2021/03/21 10:17:59;;;;;;;27.33;3.60;;;;;;;5.89;66.89;101039.88;123699;1105;64975;-80
2021/03/21 10:20:51;;;;;;;20.83;4.47;;;;;;;5.91;67.13;101050.28;123623;1106;64811;-80
2021/03/21 10:23:17;;;;;;;13.77;4.27;;;;;;;5.93;66.87;101050.98;123640;1102;64889;-81
2021/03/21 10:25:43;;;;;;;16.60;2.93;;;;;;;5.92;66.86;101049.30;123661;1103;64915;-82
2021/03/21 10:28:54;;;;;;;21.23;3.70;;;;;;;5.91;66.93;101058.19;123514;1102;64985;-82
2021/03/21 10:31:26;;;;;;;26.70;3.93;;;;;;;5.91;66.90;101066.91;123341;1106;64926;-80
2021/03/21 10:34:02;;;;;;;17.83;4.63;;;;;;;5.88;66.43;101047.91;123862;1105;64973;-81
2021/03/21 10:36:38;;;;;;;12.47;2.83;;;;;;;5.93;66.33;101056.25;123646;1105;66112;-80
2021/03/21 10:39:06;;;;;;;18.00;3.30;;;;;;;5.97;66.14;101051.55;123608;1103;64854;-82
2021/03/21 10:41:56;;;;;;;21.17;3.90;;;;;;;6.02;66.42;101050.19;124223;1105;65001;-81
2021/03/21 10:44:32;;;;;;;26.90;4.20;;;;;;;6.13;67.31;101031.62;123662;1105;64978;-80
2021/03/21 10:47:00;;;;;;;11.93;2.67;;;;;;;6.17;65.86;101039.27;123594;1105;64959;-81
2021/03/21 10:49:48;;;;;;;22.80;4.90;;;;;;;6.12;65.97;101024.70;124256;1103;64879;-81
2021/03/21 10:52:46;;;;;;;18.23;3.77;;;;;;;6.29;65.77;101046.03;124071;1103;64918;-81
2021/03/21 10:55:13;;;;;;;15.43;3.97;;;;;;;6.33;65.63;101052.70;124332;1103;64940;-81
2021/03/21 10:57:48;;;;;;;15.17;2.40;;;;;;;6.39;65.68;101054.78;124297;1102;64835;-80
2021/03/21 11:00:32;;;;;;;11.70;2.87;;;;;;;6.46;65.61;101053.27;124328;1106;64915;-81
2021/03/21 11:03:20;;;;;;;18.60;3.70;;;;;;;6.55;64.67;101074.50;124288;1102;64995;-80
2021/03/21 11:05:56;;;;;;;17.83;3.27;;;;;;;6.65;65.43;101067.39;124081;1102;64947;-82
2021/03/21 11:08:27;;;;;;;17.27;3.10;;;;;;;6.77;64.63;101058.36;124319;1106;65320;-82
2021/03/21 11:10:56;;;;;;;19.43;3.77;;;;;;;6.83;64.09;101043.80;124310;1105;64924;-81
2021/03/21 11:13:34;;;;;;;11.57;3.07;;;;;;;6.90;63.80;101060.70;124429;1104;64838;-80
2021/03/21 11:16:12;;;;;;;27.07;3.10;;;;;;;6.84;63.26;101053.35;124124;1104;64955;-82
2021/03/21 11:18:50;;;;;;;21.07;4.33;;;;;;;6.87;63.48;101056.55;124358;1102;64889;-80
2021/03/21 11:21:20;;;;;;;12.78;3.80;;;;;;;6.78;62.99;101081.14;124026;1105;64893;-81
2021/03/21 11:23:55;;;;;;;20.70;3.87;;;;;;;6.90;64.91;101045.70;124050;1102;64953;-79
2021/03/21 11:26:30;;;;;;;15.03;2.70;;;;;;;7.05;64.43;101053.17;124037;1102;64850;-81
2021/03/21 11:29:06;;;;;;;15.57;3.27;;;;;;;7.14;64.25;101049.69;124240;1105;63010;-80
2021/03/21 11:31:48;;;;;;;22.60;4.10;;;;;;;7.23;63.98;101055.91;123973;1105;64847;-81
2021/03/21 11:34:27;;;;;;;14.77;3.37;;;;;;;7.22;63.08;101077.98;124163;1106;66120;-80
2021/03/21 11:37:11;;;;;;;20.10;3.65;;;;;;;7.12;62.90;101060.37;124251;1102;64982;-81
2021/03/21 11:39:54;;;;;;;15.23;2.87;;;;;;;7.11;62.40;101052.59;124270;1105;66097;-81
2021/03/21 11:42:35;;;;;;;18.80;3.90;;;;;;;7.19;62.68;101055.36;124287;1102;63632;-81
2021/03/21 11:45:20;;;;;;;21.15;2.95;;;;;;;7.24;63.15;101044.36;124305;1105;64898;-80
2021/03/21 11:47:48;;;;;;;;;;;;;;;7.27;62.00;101063.39;124199;1102;64898;-80
2021/03/21 11:50:26;;;;;;;20.93;2.90;;;;;;;7.25;61.53;101044.23;124136;1106;64917;-80
2021/03/21 11:52:56;;;;;;;13.50;3.23;;;;;;;7.27;61.82;101044.09;124290;1102;65001;-80
2021/03/21 11:55:29;;;;;;;12.73;2.10;;;;;;;7.31;62.33;101048.93;123955;1102;64998;-81
2021/03/21 11:58:18;;;;;;;17.97;3.80;;;;;;;7.28;61.87;101041.28;123995;1102;65064;-79
2021/03/21 12:00:57;;;;;;;22.17;4.23;;;;;;;7.32;61.90;101042.66;123927;1102;65017;-82
2021/03/21 12:03:25;;;;;;;11.20;2.47;;;;;;;7.43;61.28;101067.21;123584;1102;64981;-78
2021/03/21 12:06:30;;;;;;;18.90;3.17;;;;;;;7.41;61.19;101048.05;123450;1106;64991;-80
2021/03/21 12:09:24;;;;;;;19.53;2.83;;;;;;;7.46;61.17;101051.07;123494;1105;64898;-80
2021/03/21 12:11:52;;;;;;;18.37;2.70;;;;;;;7.60;60.35;101053.23;123400;1102;65237;-80
2021/03/21 12:14:30;;;;;;;13.97;2.67;;;;;;;7.96;58.97;101054.13;123411;1105;65057;-80
2021/03/21 12:16:58;;;;;;;17.27;3.00;;;;;;;8.13;59.42;101044.56;123436;1102;65109;-80